createdAt,value
2022-07-31T00:07:13.059Z,19.37
2022-07-31T00:17:18.216Z,19.45
2022-07-31T00:27:21.974Z,19.60
2022-07-31T00:37:27.140Z,19.46
2022-07-31T00:47:30.868Z,19.55
2022-07-31T00:57:36.097Z,19.42
2022-07-31T01:07:39.851Z,19.66
2022-07-31T01:17:47.784Z,19.42
2022-07-31T01:28:06.544Z,19.59
2022-07-31T01:38:15.567Z,19.44
2022-07-31T01:48:19.840Z,19.32
2022-07-31T01:58:27.828Z,19.13
2022-07-31T02:08:36.292Z,19.25
2022-07-31T02:18:42.914Z,19.14
2022-07-31T02:28:48.766Z,19.04
2022-07-31T02:38:55.033Z,19.10
2022-07-31T02:49:00.056Z,19.18
2022-07-31T02:59:05.423Z,19.14
2022-07-31T03:09:09.197Z,19.00
2022-07-31T03:19:15.109Z,18.71
2022-07-31T03:29:41.125Z,18.41
2022-07-31T03:39:44.460Z,18.46
2022-07-31T03:49:49.351Z,18.37
2022-07-31T03:59:57.612Z,18.36
2022-07-31T04:10:02.759Z,18.40
2022-07-31T04:20:11.425Z,18.57
2022-07-31T04:30:15.223Z,18.62
2022-07-31T04:40:20.324Z,18.82
2022-07-31T04:50:24.161Z,18.87
2022-07-31T05:00:29.328Z,19.56
2022-07-31T05:10:50.522Z,20.29
2022-07-31T05:20:55.600Z,20.64
2022-07-31T05:30:59.344Z,20.74
2022-07-31T05:41:04.497Z,20.79
2022-07-31T05:51:11.348Z,20.95
2022-07-31T06:01:16.504Z,21.10
2022-07-31T06:11:21.218Z,21.04
2022-07-31T06:21:30.417Z,21.14
2022-07-31T06:31:34.828Z,21.42
2022-07-31T06:41:47.161Z,21.70
2022-07-31T06:51:51.031Z,22.11
2022-07-31T07:01:56.096Z,22.33
2022-07-31T07:11:59.889Z,22.64
2022-07-31T07:22:05.399Z,22.64
2022-07-31T07:32:09.934Z,22.87
2022-07-31T07:42:15.046Z,23.36
2022-07-31T07:52:19.123Z,23.90
2022-07-31T08:02:24.278Z,24.14
2022-07-31T08:12:29.534Z,24.22
2022-07-31T08:22:34.789Z,25.09
2022-07-31T08:32:39.412Z,25.05
2022-07-31T08:42:46.914Z,25.31
2022-07-31T08:52:51.321Z,25.82
2022-07-31T09:02:56.827Z,25.65
2022-07-31T09:13:00.689Z,26.16
2022-07-31T09:23:10.778Z,26.56
2022-07-31T09:33:16.390Z,26.87
2022-07-31T09:43:24.584Z,27.28
2022-07-31T09:53:43.493Z,27.93
2022-07-31T10:03:51.387Z,28.33
2022-07-31T10:14:02.503Z,27.94
2022-07-31T10:24:09.812Z,27.92
2022-07-31T10:34:14.778Z,27.86
2022-07-31T10:44:30.547Z,27.69
2022-07-31T10:54:44.241Z,27.84
2022-07-31T11:04:49.328Z,28.21
2022-07-31T11:14:53.056Z,28.37
2022-07-31T11:24:58.669Z,28.34
2022-07-31T11:35:02.406Z,28.54
2022-07-31T11:45:11.100Z,28.86
2022-07-31T11:55:17.285Z,29.38
2022-07-31T12:05:38.161Z,29.81
2022-07-31T12:15:54.167Z,30.14
2022-07-31T12:25:59.320Z,29.81
2022-07-31T12:36:14.315Z,29.64
2022-07-31T12:46:19.389Z,30.22
2022-07-31T12:56:23.203Z,30.97
2022-07-31T13:06:31.509Z,30.85
2022-07-31T13:16:35.211Z,30.56
2022-07-31T13:26:41.827Z,31.27
2022-07-31T13:36:45.572Z,31.11
2022-07-31T13:46:50.641Z,31.10
2022-07-31T13:56:54.591Z,30.60
2022-07-31T14:06:59.730Z,30.37
2022-07-31T14:17:04.797Z,29.89
2022-07-31T14:27:09.945Z,29.94
2022-07-31T14:37:13.735Z,30.33
2022-07-31T14:47:18.938Z,29.98
2022-07-31T14:57:22.730Z,30.14
2022-07-31T15:07:37.493Z,29.88
2022-07-31T15:17:44.774Z,30.21
2022-07-31T15:27:49.760Z,30.51
2022-07-31T15:37:53.512Z,30.73
2022-07-31T15:47:58.581Z,31.10
2022-07-31T15:58:02.343Z,30.27
2022-07-31T16:08:30.685Z,31.28
2022-07-31T16:18:33.021Z,33.26
2022-07-31T16:28:39.034Z,33.77
2022-07-31T16:38:48.215Z,33.76
2022-07-31T16:49:00.040Z,35.27
2022-07-31T16:59:04.907Z,35.76
2022-07-31T17:09:16.212Z,37.15
2022-07-31T17:19:42.070Z,34.83
2022-07-31T17:29:50.255Z,34.92
2022-07-31T17:39:56.319Z,36.83
2022-07-31T17:50:03.290Z,31.32
2022-07-31T18:00:10.225Z,29.95
2022-07-31T18:10:23.807Z,29.23
2022-07-31T18:20:31.823Z,28.96
2022-07-31T18:30:40.923Z,28.81
2022-07-31T18:40:44.782Z,28.66
2022-07-31T18:51:00.505Z,28.54
2022-07-31T19:01:08.655Z,28.23
2022-07-31T19:11:13.734Z,27.70
2022-07-31T19:21:41.643Z,27.39
2022-07-31T19:31:43.558Z,27.18
2022-07-31T19:42:11.990Z,26.88
2022-07-31T19:52:12.651Z,26.69
2022-07-31T20:02:17.095Z,26.67
2022-07-31T20:12:22.370Z,26.24
2022-07-31T20:22:26.088Z,26.33
2022-07-31T20:32:31.339Z,26.33
2022-07-31T20:42:37.705Z,25.90
2022-07-31T20:52:48.141Z,25.60
2022-07-31T21:12:59.549Z,25.29
2022-07-31T21:23:04.808Z,24.79
2022-07-31T21:33:11.594Z,24.48
2022-07-31T21:43:22.319Z,24.17
2022-07-31T21:53:28.313Z,24.05
2022-07-31T22:03:32.414Z,23.89
2022-07-31T22:13:37.924Z,23.86
2022-07-31T22:23:42.205Z,23.87
2022-07-31T22:33:47.688Z,24.12
2022-07-31T22:44:12.958Z,24.33
2022-07-31T22:54:17.228Z,24.29
2022-07-31T23:04:20.915Z,24.03
2022-07-31T23:14:26.375Z,24.16
2022-07-31T23:24:30.106Z,23.91
2022-07-31T23:34:37.120Z,23.86
2022-07-31T23:44:41.283Z,23.92
2022-07-31T23:54:51.285Z,23.76
